createdAt,value
2023-05-17T00:02:48.943Z,100.00
2023-05-17T00:07:51.851Z,100.00
2023-05-17T00:12:54.601Z,100.00
2023-05-17T00:17:57.773Z,100.00
2023-05-17T00:23:01.178Z,100.00
2023-05-17T00:28:03.565Z,100.00
2023-05-17T00:33:06.353Z,100.00
2023-05-17T00:38:09.028Z,100.00
2023-05-17T00:43:12.816Z,100.00
2023-05-17T00:48:16.554Z,100.00
2023-05-17T00:53:20.244Z,100.00
2023-05-17T00:58:24.420Z,100.00
2023-05-17T01:03:28.496Z,100.00
2023-05-17T01:08:31.516Z,100.00
2023-05-17T01:13:40.264Z,100.00
2023-05-17T01:18:57.067Z,100.00
2023-05-17T01:24:18.375Z,100.00
2023-05-17T01:29:23.492Z,100.00
2023-05-17T01:34:30.487Z,100.00
2023-05-17T01:39:33.446Z,100.00
2023-05-17T01:44:46.596Z,100.00
2023-05-17T01:49:53.786Z,100.00
2023-05-17T01:55:15.178Z,100.00
2023-05-17T02:00:19.003Z,100.00
2023-05-17T02:05:22.058Z,100.00
2023-05-17T02:10:24.489Z,100.00
2023-05-17T02:15:27.344Z,100.00
2023-05-17T02:20:30.148Z,100.00
2023-05-17T02:25:33.094Z,100.00
2023-05-17T02:30:35.510Z,100.00
2023-05-17T02:35:38.189Z,100.00
2023-05-17T02:40:42.557Z,100.00
2023-05-17T02:45:45.787Z,100.00
2023-05-17T02:50:49.162Z,100.00
2023-05-17T02:55:52.016Z,100.00
2023-05-17T03:00:55.302Z,100.00
2023-05-17T03:06:02.571Z,100.00
2023-05-17T03:11:05.125Z,100.00
2023-05-17T03:16:09.771Z,100.00
2023-05-17T03:21:12.491Z,100.00
2023-05-17T03:26:15.901Z,100.00
2023-05-17T03:31:23.783Z,100.00
2023-05-17T03:36:26.851Z,100.00
2023-05-17T03:41:30.059Z,100.00
2023-05-17T03:46:33.021Z,100.00
2023-05-17T03:51:36.374Z,100.00
2023-05-17T03:56:39.398Z,100.00
2023-05-17T04:01:43.920Z,100.00
2023-05-17T04:06:46.725Z,100.00
2023-05-17T04:11:49.727Z,100.00
2023-05-17T04:16:52.860Z,100.00
2023-05-17T04:21:55.232Z,100.00
2023-05-17T04:27:02.037Z,100.00
2023-05-17T04:32:06.774Z,100.00
2023-05-17T04:37:09.686Z,100.00
2023-05-17T04:42:13.718Z,100.00
2023-05-17T04:47:22.744Z,100.00
2023-05-17T04:52:25.713Z,100.00
2023-05-17T04:57:28.845Z,100.00
2023-05-17T05:02:37.508Z,100.00
2023-05-17T05:07:44.028Z,100.00
2023-05-17T05:12:48.395Z,100.00
2023-05-17T05:17:51.673Z,100.00
2023-05-17T05:22:57.692Z,100.00
2023-05-17T05:28:00.664Z,100.00
2023-05-17T05:33:06.195Z,100.00
2023-05-17T05:38:11.134Z,100.00
2023-05-17T05:43:14.361Z,100.00
2023-05-17T05:48:20.524Z,100.00
2023-05-17T05:53:23.000Z,100.00
2023-05-17T05:58:32.564Z,100.00
2023-05-17T06:03:37.261Z,100.00
2023-05-17T06:08:39.716Z,100.00
2023-05-17T06:13:42.662Z,100.00
2023-05-17T06:18:45.100Z,100.00
2023-05-17T06:23:47.926Z,100.00
2023-05-17T06:28:50.837Z,100.00
2023-05-17T06:33:53.752Z,100.00
2023-05-17T06:38:56.612Z,100.00
2023-05-17T06:43:59.319Z,100.00
2023-05-17T06:49:02.254Z,100.00
2023-05-17T06:54:04.626Z,100.00
2023-05-17T06:59:07.438Z,100.00
2023-05-17T07:04:09.746Z,100.00
2023-05-17T07:09:12.596Z,100.00
2023-05-17T07:14:15.302Z,100.00
2023-05-17T07:19:17.691Z,100.00
2023-05-17T07:24:20.555Z,100.00
2023-05-17T07:29:23.380Z,92.27
2023-05-17T07:34:25.828Z,86.37
2023-05-17T07:39:28.635Z,83.74
2023-05-17T07:44:31.204Z,82.45
2023-05-17T07:49:33.959Z,88.92
2023-05-17T07:54:36.504Z,76.80
2023-05-17T07:59:39.261Z,74.43
2023-05-17T08:04:42.271Z,73.58
2023-05-17T08:09:45.649Z,74.77
2023-05-17T08:14:48.052Z,78.67
2023-05-17T08:19:51.036Z,75.55
2023-05-17T08:24:53.794Z,73.91
2023-05-17T08:29:58.079Z,71.73
2023-05-17T08:35:00.777Z,73.08
2023-05-17T08:40:05.185Z,69.96
2023-05-17T08:45:08.923Z,73.01
2023-05-17T08:50:13.097Z,69.69
2023-05-17T08:55:16.799Z,72.21
2023-05-17T09:00:22.436Z,74.39
2023-05-17T09:05:25.952Z,74.29
2023-05-17T09:10:31.027Z,76.06
2023-05-17T09:15:34.748Z,78.52
2023-05-17T09:20:39.240Z,81.49
2023-05-17T09:25:51.180Z,81.54
2023-05-17T09:30:53.954Z,82.91
2023-05-17T09:35:56.380Z,88.93
2023-05-17T09:40:59.257Z,91.07
2023-05-17T09:46:02.096Z,94.12
2023-05-17T09:51:05.137Z,93.46
2023-05-17T09:56:08.516Z,91.10
2023-05-17T10:01:14.279Z,90.98
2023-05-17T10:06:38.203Z,94.25
2023-05-17T10:11:46.945Z,99.08
2023-05-17T10:16:51.602Z,100.00
2023-05-17T10:21:55.087Z,100.00
2023-05-17T10:27:00.659Z,100.00
2023-05-17T10:32:09.739Z,100.00
2023-05-17T10:37:13.904Z,100.00
2023-05-17T10:42:19.315Z,100.00
2023-05-17T10:47:22.818Z,100.00
2023-05-17T10:52:27.768Z,100.00
2023-05-17T10:57:50.694Z,100.00
2023-05-17T11:03:15.687Z,100.00
2023-05-17T11:08:18.932Z,100.00
2023-05-17T11:13:30.172Z,100.00
2023-05-17T11:18:49.155Z,100.00
2023-05-17T11:23:58.638Z,100.00
2023-05-17T11:29:11.503Z,100.00
2023-05-17T11:34:14.337Z,100.00
2023-05-17T11:39:23.992Z,100.00
2023-05-17T11:44:45.032Z,100.00
2023-05-17T11:49:47.929Z,100.00
2023-05-17T11:54:52.108Z,100.00
2023-05-17T12:00:04.374Z,100.00
2023-05-17T12:05:20.940Z,100.00
2023-05-17T12:10:37.488Z,100.00
2023-05-17T12:15:41.688Z,100.00
2023-05-17T12:21:00.658Z,100.00
2023-05-17T12:26:10.025Z,100.00
2023-05-17T12:31:19.330Z,100.00
2023-05-17T12:36:22.861Z,100.00
2023-05-17T12:41:27.045Z,100.00
2023-05-17T12:46:29.985Z,100.00
2023-05-17T12:51:50.090Z,100.00
2023-05-17T12:56:53.122Z,100.00
2023-05-17T13:01:57.589Z,100.00
2023-05-17T13:07:02.649Z,100.00
2023-05-17T13:12:09.045Z,100.00
2023-05-17T13:17:32.951Z,100.00
2023-05-17T13:22:36.222Z,100.00
2023-05-17T13:27:39.083Z,100.00
2023-05-17T13:32:41.990Z,100.00
2023-05-17T13:37:44.800Z,100.00
2023-05-17T13:42:47.658Z,100.00
2023-05-17T13:47:50.518Z,100.00
2023-05-17T13:52:53.600Z,100.00
2023-05-17T13:57:58.169Z,100.00
2023-05-17T14:03:01.303Z,100.00
2023-05-17T14:08:05.136Z,100.00
2023-05-17T14:13:12.475Z,100.00
2023-05-17T14:18:15.444Z,100.00
2023-05-17T14:23:17.823Z,100.00
2023-05-17T14:28:20.711Z,100.00
2023-05-17T14:33:23.645Z,100.00
2023-05-17T14:38:26.069Z,100.00
2023-05-17T14:43:29.423Z,100.00
2023-05-17T14:48:33.305Z,100.00
2023-05-17T14:53:36.188Z,100.00
2023-05-17T14:58:38.849Z,100.00
2023-05-17T15:03:41.960Z,100.00
2023-05-17T15:08:45.298Z,100.00
2023-05-17T15:13:48.096Z,100.00
2023-05-17T15:18:51.055Z,100.00
2023-05-17T15:23:53.810Z,100.00
2023-05-17T15:28:56.637Z,100.00
2023-05-17T15:33:59.622Z,100.00
2023-05-17T15:39:01.947Z,100.00
2023-05-17T15:44:05.840Z,100.00
2023-05-17T15:49:08.939Z,100.00
2023-05-17T15:54:11.932Z,100.00
2023-05-17T15:59:15.954Z,100.00
2023-05-17T16:04:18.800Z,100.00
2023-05-17T16:09:21.814Z,100.00
2023-05-17T16:14:24.755Z,100.00
2023-05-17T16:19:30.823Z,100.00
2023-05-17T16:24:34.158Z,100.00
2023-05-17T16:29:40.441Z,100.00
2023-05-17T16:34:43.349Z,100.00
2023-05-17T16:39:46.238Z,100.00
2023-05-17T16:44:48.976Z,100.00
2023-05-17T16:49:51.935Z,100.00
2023-05-17T16:55:01.745Z,100.00
2023-05-17T17:00:04.931Z,100.00
2023-05-17T17:05:08.044Z,100.00
2023-05-17T17:10:11.313Z,100.00
2023-05-17T17:15:14.480Z,100.00
2023-05-17T17:20:17.267Z,100.00
2023-05-17T17:25:20.244Z,100.00
2023-05-17T17:30:23.076Z,100.00
2023-05-17T17:35:25.823Z,100.00
2023-05-17T17:40:28.894Z,100.00
2023-05-17T17:45:31.437Z,100.00
2023-05-17T17:50:34.832Z,100.00
2023-05-17T17:55:37.762Z,100.00
2023-05-17T18:00:40.421Z,100.00
2023-05-17T18:05:43.326Z,100.00
2023-05-17T18:10:46.432Z,100.00
2023-05-17T18:15:48.728Z,100.00
2023-05-17T18:20:51.909Z,100.00
2023-05-17T18:25:59.557Z,100.00
2023-05-17T18:31:02.338Z,100.00
2023-05-17T18:36:05.689Z,100.00
2023-05-17T18:41:08.126Z,100.00
2023-05-17T18:46:10.876Z,100.00
2023-05-17T18:51:15.822Z,100.00
2023-05-17T18:56:22.987Z,100.00
2023-05-17T19:01:26.289Z,100.00
2023-05-17T19:06:29.080Z,100.00
2023-05-17T19:11:32.778Z,100.00
2023-05-17T19:16:35.643Z,100.00
2023-05-17T19:21:38.407Z,100.00
2023-05-17T19:26:41.001Z,100.00
2023-05-17T19:31:43.705Z,100.00
2023-05-17T19:36:46.780Z,100.00
2023-05-17T19:41:49.900Z,100.00
2023-05-17T19:46:52.657Z,100.00
2023-05-17T19:52:00.804Z,100.00
2023-05-17T19:57:08.348Z,100.00
2023-05-17T20:02:14.674Z,100.00
2023-05-17T20:07:17.845Z,100.00
2023-05-17T20:12:20.997Z,100.00
2023-05-17T20:17:23.734Z,100.00
2023-05-17T20:22:29.721Z,100.00
2023-05-17T20:27:32.274Z,100.00
2023-05-17T20:32:35.336Z,100.00
2023-05-17T20:37:38.228Z,100.00
2023-05-17T20:42:41.219Z,100.00
2023-05-17T20:47:43.633Z,100.00
2023-05-17T20:52:46.362Z,100.00
2023-05-17T20:57:48.965Z,100.00
2023-05-17T21:02:52.212Z,100.00
2023-05-17T21:07:56.585Z,100.00
2023-05-17T21:12:59.403Z,100.00
2023-05-17T21:18:01.909Z,100.00
2023-05-17T21:23:04.757Z,100.00
2023-05-17T21:28:08.206Z,100.00
2023-05-17T21:33:11.267Z,100.00
2023-05-17T21:38:14.004Z,100.00
2023-05-17T21:43:16.345Z,100.00
2023-05-17T21:48:19.118Z,100.00
2023-05-17T21:53:21.653Z,100.00
2023-05-17T21:58:24.356Z,100.00
2023-05-17T22:03:27.134Z,100.00
2023-05-17T22:08:29.973Z,100.00
2023-05-17T22:13:32.895Z,100.00
2023-05-17T22:18:35.797Z,100.00
2023-05-17T22:23:38.572Z,100.00
2023-05-17T22:28:41.368Z,100.00
2023-05-17T22:33:46.987Z,100.00
2023-05-17T22:38:49.331Z,100.00
2023-05-17T22:43:52.173Z,100.00
2023-05-17T22:49:01.975Z,100.00
2023-05-17T22:54:04.965Z,100.00
2023-05-17T22:59:10.471Z,100.00
2023-05-17T23:04:13.373Z,100.00
2023-05-17T23:09:15.699Z,100.00
2023-05-17T23:14:18.485Z,100.00
2023-05-17T23:19:21.361Z,100.00
2023-05-17T23:24:26.060Z,100.00
2023-05-17T23:29:28.462Z,100.00
2023-05-17T23:34:31.137Z,100.00
2023-05-17T23:39:33.797Z,100.00
2023-05-17T23:44:38.213Z,100.00
2023-05-17T23:49:40.528Z,100.00
2023-05-17T23:54:43.274Z,100.00
2023-05-17T23:59:45.920Z,100.00
